createdAt,value
2022-10-16T00:01:29.934Z,5.62
2022-10-16T00:06:52.204Z,5.67
2022-10-16T00:12:16.773Z,5.76
2022-10-16T00:17:38.953Z,5.69
2022-10-16T00:23:01.374Z,5.69
2022-10-16T00:28:23.216Z,6.11
2022-10-16T00:33:45.753Z,5.60
2022-10-16T00:39:08.003Z,5.62
2022-10-16T00:44:58.901Z,6.16
2022-10-16T00:50:29.325Z,5.99
2022-10-16T00:55:54.385Z,5.99
2022-10-16T01:01:22.025Z,6.18
2022-10-16T01:07:02.653Z,5.95
2022-10-16T01:12:49.546Z,6.18
2022-10-16T01:18:26.033Z,6.19
2022-10-16T01:24:08.710Z,6.21
2022-10-16T01:29:44.967Z,6.22
2022-10-16T01:35:18.733Z,5.93
2022-10-16T01:40:46.975Z,5.79
2022-10-16T01:46:10.253Z,6.09
2022-10-16T01:51:32.566Z,6.23
2022-10-16T01:56:56.553Z,6.20
2022-10-16T02:02:21.574Z,6.13
2022-10-16T02:07:44.014Z,6.21
2022-10-16T02:13:19.666Z,6.18
2022-10-16T02:19:01.474Z,6.12
2022-10-16T02:24:40.595Z,6.10
2022-10-16T02:30:12.326Z,6.09
2022-10-16T02:35:35.606Z,6.08
2022-10-16T02:40:56.614Z,6.05
2022-10-16T02:46:20.334Z,6.09
2022-10-16T02:51:41.973Z,6.13
2022-10-16T02:57:04.214Z,6.16
2022-10-16T03:02:26.573Z,6.17
2022-10-16T03:07:48.307Z,6.17
2022-10-16T03:13:10.353Z,6.14
2022-10-16T03:18:35.166Z,6.17
2022-10-16T03:23:57.123Z,6.18
2022-10-16T03:29:19.233Z,6.20
2022-10-16T03:34:40.813Z,6.25
2022-10-16T03:40:03.127Z,5.97
2022-10-16T03:45:26.313Z,6.14
2022-10-16T03:50:49.886Z,5.91
2022-10-16T03:56:12.073Z,5.83
2022-10-16T04:01:34.675Z,6.01
2022-10-16T04:06:59.625Z,6.31
2022-10-16T04:12:24.006Z,6.28
2022-10-16T04:17:46.052Z,5.83
2022-10-16T04:23:08.315Z,6.18
2022-10-16T04:28:30.859Z,6.12
2022-10-16T04:33:55.841Z,5.99
2022-10-16T04:39:17.883Z,6.30
2022-10-16T04:44:39.526Z,6.55
2022-10-16T04:50:03.954Z,6.61
2022-10-16T04:55:26.133Z,6.59
2022-10-16T05:00:48.253Z,6.75
2022-10-16T05:06:10.245Z,6.81
2022-10-16T05:11:33.174Z,6.90
2022-10-16T05:16:54.966Z,6.86
2022-10-16T05:22:16.954Z,7.01
2022-10-16T05:27:38.906Z,6.79
2022-10-16T05:33:01.154Z,6.74
2022-10-16T05:38:23.566Z,7.09
2022-10-16T05:43:45.326Z,7.27
2022-10-16T05:49:08.506Z,7.11
2022-10-16T05:54:30.493Z,7.96
2022-10-16T05:59:52.964Z,8.23
2022-10-16T06:05:14.986Z,8.52
2022-10-16T06:10:36.685Z,8.80
2022-10-16T06:16:01.116Z,9.02
2022-10-16T06:21:27.236Z,8.59
2022-10-16T06:26:49.249Z,8.80
2022-10-16T06:32:11.990Z,8.93
2022-10-16T06:37:33.636Z,9.22
2022-10-16T06:42:58.781Z,9.75
2022-10-16T06:48:21.434Z,10.08
2022-10-16T06:54:02.238Z,10.49
2022-10-16T06:59:25.210Z,10.88
2022-10-16T07:04:47.405Z,10.93
2022-10-16T07:10:10.032Z,10.93
2022-10-16T07:15:31.866Z,11.12
2022-10-16T07:20:53.993Z,11.13
2022-10-16T07:26:16.485Z,11.44
2022-10-16T07:31:39.394Z,11.80
2022-10-16T07:37:01.314Z,12.07
2022-10-16T07:42:23.506Z,11.65
2022-10-16T07:47:45.225Z,12.08
2022-10-16T07:53:07.049Z,12.69
2022-10-16T07:58:30.056Z,12.89
2022-10-16T08:03:53.436Z,12.61
2022-10-16T08:09:16.073Z,12.43
2022-10-16T08:14:37.713Z,12.19
2022-10-16T08:19:59.658Z,12.54
2022-10-16T08:25:22.645Z,12.41
2022-10-16T08:30:44.877Z,12.52
2022-10-16T08:36:08.163Z,12.55
2022-10-16T08:41:58.067Z,12.59
2022-10-16T08:47:21.676Z,12.55
2022-10-16T08:52:45.713Z,12.38
2022-10-16T08:58:15.668Z,12.60
2022-10-16T09:03:51.165Z,12.69
2022-10-16T09:09:32.627Z,12.79
2022-10-16T09:15:00.805Z,12.72
2022-10-16T09:20:34.089Z,12.76
2022-10-16T09:25:59.166Z,12.88
2022-10-16T09:31:23.107Z,12.92
2022-10-16T09:36:48.392Z,13.04
2022-10-16T09:42:15.595Z,12.94
2022-10-16T09:47:44.084Z,12.99
2022-10-16T09:53:19.175Z,12.85
2022-10-16T09:58:50.967Z,12.99
2022-10-16T10:04:13.633Z,13.08
2022-10-16T10:09:47.416Z,13.10
2022-10-16T10:15:14.078Z,13.23
2022-10-16T10:20:40.135Z,13.27
2022-10-16T10:26:22.895Z,13.21
2022-10-16T10:32:00.465Z,13.19
2022-10-16T10:37:56.646Z,13.18
2022-10-16T10:43:46.735Z,13.13
2022-10-16T10:49:21.577Z,12.55
2022-10-16T10:55:15.945Z,12.89
2022-10-16T11:00:44.685Z,12.63
2022-10-16T11:06:26.355Z,13.04
2022-10-16T11:12:32.157Z,13.04
2022-10-16T11:18:21.097Z,12.72
2022-10-16T11:24:01.534Z,13.04
2022-10-16T11:29:32.575Z,12.49
2022-10-16T11:35:06.154Z,12.81
2022-10-16T11:40:36.835Z,12.62
2022-10-16T11:46:06.560Z,12.81
2022-10-16T11:51:39.595Z,12.97
2022-10-16T11:57:08.956Z,12.99
2022-10-16T12:02:59.027Z,12.84
2022-10-16T12:08:21.605Z,12.90
2022-10-16T12:13:44.204Z,12.82
2022-10-16T12:19:26.685Z,12.77
2022-10-16T12:24:53.616Z,12.67
2022-10-16T12:30:24.884Z,12.55
2022-10-16T12:35:47.853Z,12.43
2022-10-16T12:41:45.195Z,12.31
2022-10-16T12:47:22.618Z,12.09
2022-10-16T12:52:49.355Z,11.95
2022-10-16T12:58:50.254Z,11.80
2022-10-16T13:04:21.957Z,11.87
2022-10-16T13:10:04.485Z,11.89
2022-10-16T13:15:39.776Z,11.80
2022-10-16T13:21:24.381Z,11.39
2022-10-16T13:27:08.734Z,11.58
2022-10-16T13:32:31.513Z,11.18
2022-10-16T13:38:16.815Z,11.25
2022-10-16T13:43:43.342Z,11.25
2022-10-16T13:49:07.974Z,11.13
2022-10-16T13:54:32.904Z,11.04
2022-10-16T13:59:55.136Z,10.90
2022-10-16T14:05:17.376Z,10.73
2022-10-16T14:10:40.383Z,10.54
2022-10-16T14:16:08.375Z,10.39
2022-10-16T14:21:30.827Z,10.22
2022-10-16T14:26:52.907Z,9.99
2022-10-16T14:32:25.626Z,9.94
2022-10-16T14:37:48.095Z,9.79
2022-10-16T14:43:24.216Z,9.64
2022-10-16T14:48:52.648Z,9.49
2022-10-16T14:54:16.874Z,9.37
2022-10-16T14:59:42.344Z,9.24
2022-10-16T15:05:20.545Z,9.10
2022-10-16T15:10:45.033Z,8.85
2022-10-16T15:16:13.356Z,8.88
2022-10-16T15:21:35.494Z,8.76
2022-10-16T15:26:57.349Z,8.63
2022-10-16T15:32:19.467Z,8.37
2022-10-16T15:37:41.787Z,8.42
2022-10-16T15:43:03.775Z,8.21
2022-10-16T15:48:25.737Z,8.14
2022-10-16T15:53:47.814Z,8.15
2022-10-16T15:59:09.797Z,7.96
2022-10-16T16:04:43.305Z,7.95
2022-10-16T16:10:09.436Z,7.95
2022-10-16T16:15:34.494Z,7.86
2022-10-16T16:20:57.295Z,7.69
2022-10-16T16:26:30.987Z,7.68
2022-10-16T16:31:58.594Z,7.64
2022-10-16T16:37:20.742Z,7.35
2022-10-16T16:42:43.619Z,7.19
2022-10-16T16:48:07.375Z,7.01
2022-10-16T16:53:29.456Z,6.89
2022-10-16T16:58:53.925Z,7.03
2022-10-16T17:04:19.039Z,7.17
2022-10-16T17:09:44.438Z,7.07
2022-10-16T17:15:07.715Z,6.92
2022-10-16T17:20:35.448Z,6.75
2022-10-16T17:25:58.537Z,6.54
2022-10-16T17:31:24.417Z,7.09
2022-10-16T17:36:50.855Z,6.54
2022-10-16T17:42:13.143Z,6.82
2022-10-16T17:47:36.357Z,6.75
2022-10-16T17:52:58.627Z,6.87
2022-10-16T17:58:20.743Z,6.72
2022-10-16T18:03:43.057Z,6.83
2022-10-16T18:09:06.300Z,6.82
2022-10-16T18:14:30.604Z,6.57
2022-10-16T18:19:52.833Z,6.69
2022-10-16T18:25:14.816Z,6.40
2022-10-16T18:30:36.576Z,6.66
2022-10-16T18:36:10.062Z,6.07
2022-10-16T18:42:00.376Z,6.60
2022-10-16T18:47:22.857Z,6.34
2022-10-16T18:52:51.965Z,6.31
2022-10-16T18:58:14.676Z,6.12
2022-10-16T19:03:39.304Z,6.21
2022-10-16T19:09:01.574Z,6.35
2022-10-16T19:14:26.922Z,6.40
2022-10-16T19:19:49.176Z,5.95
2022-10-16T19:25:12.856Z,6.04
2022-10-16T19:30:39.374Z,6.48
2022-10-16T19:36:30.237Z,6.23
2022-10-16T19:41:52.353Z,6.13
2022-10-16T19:47:14.697Z,6.41
2022-10-16T19:52:37.993Z,6.23
2022-10-16T19:58:00.394Z,6.25
2022-10-16T20:03:22.776Z,6.30
2022-10-16T20:08:49.217Z,6.25
2022-10-16T20:14:11.334Z,6.20
2022-10-16T20:19:34.823Z,6.20
2022-10-16T20:24:57.025Z,6.22
2022-10-16T20:30:18.953Z,5.98
2022-10-16T20:35:46.554Z,6.19
2022-10-16T20:41:09.601Z,6.15
2022-10-16T20:46:31.849Z,6.08
2022-10-16T20:51:53.895Z,6.00
2022-10-16T20:57:15.957Z,6.05
2022-10-16T21:02:38.357Z,5.99
2022-10-16T21:08:00.368Z,6.00
2022-10-16T21:13:26.018Z,6.00
2022-10-16T21:18:50.701Z,6.00
2022-10-16T21:24:16.545Z,5.95
2022-10-16T21:29:39.343Z,5.92
2022-10-16T21:35:01.496Z,5.91
2022-10-16T21:40:25.455Z,5.90
2022-10-16T21:45:47.363Z,5.87
2022-10-16T21:51:11.354Z,5.85
2022-10-16T21:56:35.554Z,5.80
2022-10-16T22:01:57.674Z,5.78
2022-10-16T22:07:19.634Z,5.77
2022-10-16T22:12:42.394Z,5.78
2022-10-16T22:18:04.735Z,5.26
2022-10-16T22:23:26.774Z,5.38
2022-10-16T22:28:49.186Z,5.71
2022-10-16T22:34:14.518Z,5.63
2022-10-16T22:39:36.663Z,5.58
2022-10-16T22:44:58.764Z,5.69
2022-10-16T22:50:20.913Z,5.68
2022-10-16T22:55:42.983Z,5.68
2022-10-16T23:01:19.574Z,5.70
2022-10-16T23:06:41.573Z,5.71
2022-10-16T23:12:03.773Z,5.69
2022-10-16T23:17:25.694Z,5.72
2022-10-16T23:22:47.892Z,5.55
2022-10-16T23:28:10.210Z,5.59
2022-10-16T23:33:34.304Z,5.72
2022-10-16T23:38:56.594Z,5.71
2022-10-16T23:44:18.534Z,5.65
2022-10-16T23:49:40.155Z,5.71
2022-10-16T23:55:02.319Z,5.70
